Time;durP1;ratioP1;P1;durP2;ratioP2;P2;SDS_P1;SDS_P2;PMS_P1;PMS_P2;Temp;Humidity;BMP_temperature;BMP_pressure;BME280_temperature;BME280_humidity;BME280_pressure;Samples;Min_cycle;Max_cycle;Signal;HPM_P1;HPM_P2
2022/05/13 00:00:54;;;;;;;;;;;;;;;22.40;37.03;100362.69;2067336;28;1056;-55
2022/05/13 00:01:54;;;;;;;;;;;;;;;22.39;37.47;100364.53;2067381;28;772;-55
2022/05/13 00:02:54;;;;;;;;;;;;;;;22.39;37.61;100360.94;2067330;28;978;-55
2022/05/13 00:03:55;;;;;;;;;;;;;;;22.39;37.04;100360.94;2067349;28;916;-55
2022/05/13 00:04:55;;;;;;;;;;;;;;;22.39;37.13;100361.84;2067402;28;772;-55
2022/05/13 00:05:55;;;;;;;;;;;;;;;22.43;36.95;100359.84;2067294;28;989;-55
2022/05/13 00:06:55;;;;;;;;;;;;;;;22.42;37.22;100358.09;2067339;28;764;-55
2022/05/13 00:07:55;;;;;;;;;;;;;;;22.41;37.45;100361.75;2067291;28;907;-55
2022/05/13 00:08:55;;;;;;;;;;;;;;;22.41;36.90;100359.94;2067320;28;1068;-55
2022/05/13 00:10:05;;;;;;;;;;;;;;;22.39;37.36;100364.53;2067519;28;855;-55
2022/05/13 00:11:06;;;;;;;;;;;;;;;22.39;37.05;100369.94;2067311;28;816;-55
2022/05/13 00:12:06;;;;;;;;;;;;;;;22.40;37.28;100357.28;2067312;28;835;-55
2022/05/13 00:13:06;;;;;;;;;;;;;;;22.39;37.22;100359.13;2067167;28;1953;-55
2022/05/13 00:14:08;;;;;;;;;;;;;;;22.37;37.13;100363.72;2067235;28;867;-55
2022/05/13 00:15:11;;;;;;;;;;;;;;;22.35;37.64;100357.53;2067277;28;805;-55
2022/05/13 00:16:12;;;;;;;;;;;;;;;22.35;37.85;100365.63;2067338;28;915;-55
2022/05/13 00:17:12;;;;;;;;;;;;;;;22.36;37.83;100359.28;2066577;28;906;-55
2022/05/13 00:18:12;;;;;;;;;;;;;;;22.37;37.80;100361.03;2066659;28;1018;-55
2022/05/13 00:19:12;;;;;;;;;;;;;;;22.37;37.05;100361.03;2067362;28;920;-55
2022/05/13 00:20:13;;;;;;;;;;;;;;;22.35;37.86;100358.44;2067212;28;994;-55
2022/05/13 00:21:14;;;;;;;;;;;;;;;22.39;37.14;100360.94;2067265;28;874;-55
2022/05/13 00:22:14;;;;;;;;;;;;;;;22.36;37.47;100361.97;2067210;28;973;-55
2022/05/13 00:23:14;;;;;;;;;;;;;;;22.35;37.21;100360.22;2067206;28;831;-55
2022/05/13 00:24:14;;;;;;;;;;;;;;;22.35;37.52;100358.44;2067180;28;804;-55
2022/05/13 00:25:15;;;;;;;;;;;;;;;22.32;37.38;100363.97;2067181;28;863;-55
2022/05/13 00:26:16;;;;;;;;;;;;;;;22.34;37.58;100359.38;2067182;28;989;-55
2022/05/13 00:27:16;;;;;;;;;;;;;;;22.36;37.36;100359.28;2067160;28;780;-55
2022/05/13 00:28:16;;;;;;;;;;;;;;;22.34;37.43;100370.16;2067066;28;1328;-56
2022/05/13 00:29:16;;;;;;;;;;;;;;;22.32;37.20;100363.97;2067143;28;891;-55
2022/05/13 00:30:16;;;;;;;;;;;;;;;22.35;37.73;100365.63;2067191;28;835;-55
2022/05/13 00:31:17;;;;;;;;;;;;;;;22.33;37.33;100367.53;2067153;28;807;-55
2022/05/13 00:32:17;;;;;;;;;;;;;;;22.33;37.76;100362.13;2067127;28;855;-55
2022/05/13 00:33:18;;;;;;;;;;;;;;;22.32;37.31;100369.38;2067065;28;1993;-55
2022/05/13 00:34:19;;;;;;;;;;;;;;;22.32;37.86;100363.97;2067067;28;997;-55
2022/05/13 00:35:20;;;;;;;;;;;;;;;22.31;37.87;100364.03;2067077;28;862;-55
2022/05/13 00:36:20;;;;;;;;;;;;;;;22.32;37.44;100368.47;2067153;28;926;-55
2022/05/13 00:37:20;;;;;;;;;;;;;;;22.31;37.11;100369.41;2066961;28;1307;-55
2022/05/13 00:38:21;;;;;;;;;;;;;;;22.29;38.08;100366.81;2067065;28;608;-55
2022/05/13 00:39:21;;;;;;;;;;;;;;;22.28;37.81;100378.56;2067068;28;910;-55
2022/05/13 00:40:22;;;;;;;;;;;;;;;22.29;38.04;100372.22;2067041;28;890;-55
2022/05/13 00:41:22;;;;;;;;;;;;;;;22.29;37.22;100369.50;2067102;28;863;-55
2022/05/13 00:42:23;;;;;;;;;;;;;;;22.30;37.47;100373.97;2067010;28;880;-55
2022/05/13 00:43:42;;;;;;;;;;;;;;;22.29;37.32;100372.22;2067095;28;812;-55
2022/05/13 00:44:42;;;;;;;;;;;;;;;22.30;37.19;100370.38;2067044;28;887;-55
2022/05/13 00:45:42;;;;;;;;;;;;;;;22.29;38.04;100374.00;2067007;28;859;-55
2022/05/13 00:46:42;;;;;;;;;;;;;;;22.28;37.24;100367.75;2066975;28;867;-55
2022/05/13 00:47:44;;;;;;;;;;;;;;;22.28;38.06;100369.56;2066994;28;777;-56
2022/05/13 00:48:45;;;;;;;;;;;;;;;22.28;37.97;100361.47;2066957;28;958;-55
2022/05/13 00:49:45;;;;;;;;;;;;;;;22.27;37.77;100362.41;2066956;28;1045;-55
2022/05/13 00:50:45;;;;;;;;;;;;;;;22.26;37.91;100366.97;2067010;28;851;-55
2022/05/13 00:51:47;;;;;;;;;;;;;;;22.26;38.04;100374.16;2066980;28;873;-55
2022/05/13 00:52:49;;;;;;;;;;;;;;;22.26;38.05;100363.38;2066839;28;1894;-55
2022/05/13 00:53:49;;;;;;;;;;;;;;;22.26;37.69;100363.38;2066988;28;1041;-55
2022/05/13 00:54:49;;;;;;;;;;;;;;;22.27;37.80;100359.72;2066897;28;859;-55
2022/05/13 00:55:51;;;;;;;;;;;;;;;22.26;37.96;100357.97;2066930;28;990;-55
2022/05/13 00:56:51;;;;;;;;;;;;;;;22.25;38.03;100367.00;2066951;28;883;-55
2022/05/13 00:57:52;;;;;;;;;;;;;;;22.25;37.46;100370.59;2066931;28;883;-55
2022/05/13 00:58:55;;;;;;;;;;;;;;;22.25;37.08;100375.09;2066413;28;1034;-55
2022/05/13 00:59:56;;;;;;;;;;;;;;;22.23;38.04;100372.50;2067167;28;721;-55
2022/05/13 01:00:56;;;;;;;;;;;;;;;22.24;37.54;100376.94;2066906;28;868;-55
2022/05/13 01:01:57;;;;;;;;;;;;;;;22.25;38.14;100372.41;2066905;28;851;-55
2022/05/13 01:02:57;;;;;;;;;;;;;;;22.25;37.35;100380.50;2066865;28;875;-55
2022/05/13 01:04:00;;;;;;;;;;;;;;;22.24;37.38;100371.56;2066837;28;986;-55
2022/05/13 01:05:05;;;;;;;;;;;;;;;22.23;37.92;100375.19;2066874;28;898;-55
2022/05/13 01:06:07;;;;;;;;;;;;;;;22.23;38.03;100375.19;2066902;28;1026;-55
2022/05/13 01:07:12;;;;;;;;;;;;;;;22.23;38.18;100375.19;2066984;28;800;-55
2022/05/13 01:08:12;;;;;;;;;;;;;;;22.24;37.55;100376.06;2066804;28;970;-56
2022/05/13 01:09:12;;;;;;;;;;;;;;;22.24;37.34;100373.34;2066127;28;1168;-55
2022/05/13 01:10:18;;;;;;;;;;;;;;;22.23;38.05;100372.50;2066265;28;864;-55
2022/05/13 01:11:20;;;;;;;;;;;;;;;22.22;37.68;100370.75;2066826;28;957;-55
2022/05/13 01:12:23;;;;;;;;;;;;;;;22.23;37.76;100372.50;2066804;28;930;-55
2022/05/13 01:13:28;;;;;;;;;;;;;;;22.24;37.41;100373.34;2066830;28;777;-55
2022/05/13 01:14:34;;;;;;;;;;;;;;;22.23;37.67;100375.19;2066778;28;842;-55
2022/05/13 01:15:37;;;;;;;;;;;;;;;22.22;38.21;100378.84;2066898;28;953;-55
2022/05/13 01:18:08;;;;;;;;;;;;;;;22.23;38.23;100380.59;2066816;28;789;-55
2022/05/13 01:19:08;;;;;;;;;;;;;;;22.23;38.15;100383.28;2066818;28;823;-55
2022/05/13 01:20:09;;;;;;;;;;;;;;;22.22;38.16;100378.84;2066760;28;1033;-55
2022/05/13 01:21:13;;;;;;;;;;;;;;;22.23;37.86;100377.00;2066703;28;919;-55
2022/05/13 01:22:14;;;;;;;;;;;;;;;22.22;38.14;100384.25;2066738;28;831;-55
2022/05/13 01:23:19;;;;;;;;;;;;;;;22.23;38.22;100380.59;2066798;28;827;-55
2022/05/13 01:24:21;;;;;;;;;;;;;;;22.21;37.37;100380.66;2066807;28;764;-55
2022/05/13 01:25:24;;;;;;;;;;;;;;;22.21;38.20;100379.78;2066728;28;985;-55
2022/05/13 01:26:26;;;;;;;;;;;;;;;22.19;38.10;100377.16;2066754;28;800;-55
2022/05/13 01:27:26;;;;;;;;;;;;;;;22.19;37.93;100374.44;2066575;28;1281;-56
2022/05/13 01:28:29;;;;;;;;;;;;;;;22.19;37.98;100378.97;2066409;28;1062;-55
2022/05/13 01:29:29;;;;;;;;;;;;;;;22.19;37.77;100382.53;2066338;28;1014;-55
2022/05/13 01:30:30;;;;;;;;;;;;;;;22.19;37.79;100382.53;2066403;28;750;-55
2022/05/13 01:31:31;;;;;;;;;;;;;;;22.19;38.19;100384.38;2066423;28;831;-55
2022/05/13 01:32:31;;;;;;;;;;;;;;;22.20;38.34;100381.59;2066313;28;1907;-55
2022/05/13 01:33:31;;;;;;;;;;;;;;;22.22;37.70;100389.63;2066361;28;970;-55
2022/05/13 01:34:32;;;;;;;;;;;;;;;22.21;37.47;100380.66;2066309;28;1036;-55
2022/05/13 01:35:32;;;;;;;;;;;;;;;22.21;38.07;100379.78;2066373;28;836;-55
2022/05/13 01:36:32;;;;;;;;;;;;;;;22.20;37.44;100381.59;2066389;28;752;-55
2022/05/13 01:37:33;;;;;;;;;;;;;;;22.21;37.38;100385.19;2066334;28;911;-55
2022/05/13 01:38:35;;;;;;;;;;;;;;;22.20;37.57;100384.28;2066513;28;759;-55
2022/05/13 01:39:35;;;;;;;;;;;;;;;22.17;38.21;100384.44;2066391;28;860;-55
2022/05/13 01:40:36;;;;;;;;;;;;;;;22.19;38.24;100381.69;2066349;28;998;-55
2022/05/13 01:41:36;;;;;;;;;;;;;;;22.20;38.09;100381.59;2066391;28;982;-55
2022/05/13 01:42:36;;;;;;;;;;;;;;;22.19;37.67;100385.25;2066325;28;857;-55
2022/05/13 01:43:37;;;;;;;;;;;;;;;22.21;37.77;100382.50;2066365;28;982;-55
2022/05/13 01:44:38;;;;;;;;;;;;;;;22.21;38.17;100387.88;2066340;28;938;-55
2022/05/13 01:45:38;;;;;;;;;;;;;;;22.17;37.58;100387.13;2066326;28;1049;-55
2022/05/13 01:46:38;;;;;;;;;;;;;;;22.17;38.22;100388.97;2066266;28;785;-55
2022/05/13 01:47:38;;;;;;;;;;;;;;;22.16;38.39;100388.09;2066317;28;760;-55
2022/05/13 01:48:39;;;;;;;;;;;;;;;22.17;38.33;100386.28;2066270;28;978;-55
2022/05/13 01:49:39;;;;;;;;;;;;;;;22.16;38.32;100385.38;2066266;28;871;-55
2022/05/13 01:50:40;;;;;;;;;;;;;;;22.18;38.21;100398.81;2066304;28;779;-55
2022/05/13 01:51:40;;;;;;;;;;;;;;;22.18;37.64;100391.59;2066227;28;1014;-55
2022/05/13 01:52:40;;;;;;;;;;;;;;;22.18;38.01;100388.03;2066180;28;1895;-55
2022/05/13 01:53:41;;;;;;;;;;;;;;;22.17;38.30;100381.75;2066290;28;977;-55
2022/05/13 01:54:41;;;;;;;;;;;;;;;22.17;38.33;100386.28;2066267;28;970;-55
2022/05/13 01:55:44;;;;;;;;;;;;;;;22.16;38.53;100388.09;2066379;28;986;-55
2022/05/13 01:56:44;;;;;;;;;;;;;;;22.16;37.69;100385.38;2066291;28;887;-55
2022/05/13 01:57:45;;;;;;;;;;;;;;;22.16;37.87;100384.53;2066363;28;986;-55
2022/05/13 01:58:45;;;;;;;;;;;;;;;22.17;37.63;100383.56;2066214;28;883;-55
2022/05/13 01:59:45;;;;;;;;;;;;;;;22.16;38.03;100379.13;2066279;28;780;-56
2022/05/13 02:00:47;;;;;;;;;;;;;;;22.16;37.61;100384.53;2066257;28;903;-55
2022/05/13 02:01:47;;;;;;;;;;;;;;;22.16;38.12;100387.22;2066238;28;895;-55
2022/05/13 02:04:06;;;;;;;;;;;;;;;22.15;37.58;100390.88;2065789;28;670;-55
2022/05/13 02:05:07;;;;;;;;;;;;;;;22.14;37.52;100386.41;2066237;28;1049;-55
2022/05/13 02:06:07;;;;;;;;;;;;;;;22.15;38.25;100390.88;2066237;28;978;-55
2022/05/13 02:07:07;;;;;;;;;;;;;;;22.15;37.64;100385.47;2066211;28;824;-55
2022/05/13 02:08:07;;;;;;;;;;;;;;;22.15;37.54;100389.03;2066246;28;978;-55
2022/05/13 02:09:07;;;;;;;;;;;;;;;22.15;37.69;100389.03;2066175;28;1003;-55
2022/05/13 02:10:08;;;;;;;;;;;;;;;22.15;38.31;100388.16;2066170;28;860;-55
2022/05/13 02:11:09;;;;;;;;;;;;;;;22.15;38.02;100393.56;2067304;28;796;-55
2022/05/13 02:12:09;;;;;;;;;;;;;;;22.15;38.17;100393.56;2067630;28;1009;-56
2022/05/13 02:13:10;;;;;;;;;;;;;;;22.15;38.34;100388.16;2067620;28;1886;-55
2022/05/13 02:14:11;;;;;;;;;;;;;;;22.15;38.47;100386.34;2067603;28;859;-55
2022/05/13 02:15:11;;;;;;;;;;;;;;;22.15;38.32;100388.16;2067598;28;1029;-55
2022/05/13 02:16:12;;;;;;;;;;;;;;;22.15;37.65;100390.88;2067879;28;787;-55
2022/05/13 02:17:12;;;;;;;;;;;;;;;22.14;37.83;100384.59;2067600;28;1009;-56
2022/05/13 02:18:12;;;;;;;;;;;;;;;22.14;38.47;100381.88;2067648;28;978;-55
2022/05/13 02:19:12;;;;;;;;;;;;;;;22.14;38.03;100383.72;2067562;28;1045;-55
2022/05/13 02:20:13;;;;;;;;;;;;;;;22.14;38.70;100391.81;2067740;28;815;-55
2022/05/13 02:21:13;;;;;;;;;;;;;;;22.14;38.51;100391.81;2067614;28;792;-55
2022/05/13 02:22:13;;;;;;;;;;;;;;;22.15;38.46;100393.56;2067634;28;1026;-55
2022/05/13 02:23:14;;;;;;;;;;;;;;;22.15;38.57;100393.56;2067642;28;992;-55
2022/05/13 02:24:14;;;;;;;;;;;;;;;22.15;38.31;100393.56;2067725;28;795;-55
2022/05/13 02:25:14;;;;;;;;;;;;;;;22.15;38.51;100390.88;2067598;28;866;-55
2022/05/13 02:26:15;;;;;;;;;;;;;;;22.15;38.09;100404.34;2067523;28;993;-55
2022/05/13 02:27:16;;;;;;;;;;;;;;;22.17;38.51;100399.75;2067569;28;793;-55
2022/05/13 02:28:17;;;;;;;;;;;;;;;22.16;37.92;100400.72;2030879;28;1072680;-55
2022/05/13 02:29:17;;;;;;;;;;;;;;;22.14;38.22;100397.22;2068115;28;960;-55
2022/05/13 02:30:17;;;;;;;;;;;;;;;22.14;38.41;100403.47;2068041;28;1036;-55
2022/05/13 02:31:17;;;;;;;;;;;;;;;22.14;37.81;100402.59;2068124;28;787;-55
2022/05/13 02:32:17;;;;;;;;;;;;;;;22.14;38.05;100408.84;2068065;28;859;-56
2022/05/13 02:33:17;;;;;;;;;;;;;;;22.13;38.35;100400.84;2067968;28;1911;-55
2022/05/13 02:34:17;;;;;;;;;;;;;;;22.14;38.54;100408.84;2067979;28;973;-55
2022/05/13 02:35:18;;;;;;;;;;;;;;;22.14;38.46;100402.59;2068043;28;764;-55
2022/05/13 02:36:18;;;;;;;;;;;;;;;22.15;38.62;100407.06;2068015;28;784;-55
2022/05/13 02:37:18;;;;;;;;;;;;;;;22.15;38.21;100405.22;2067988;28;1282;-55
2022/05/13 02:38:18;;;;;;;;;;;;;;;22.13;37.91;100401.72;2068005;28;990;-55
2022/05/13 02:39:18;;;;;;;;;;;;;;;22.12;38.50;100404.50;2067975;28;1009;-55
2022/05/13 02:40:20;;;;;;;;;;;;;;;22.13;37.76;100407.09;2068024;28;772;-55
2022/05/13 02:41:20;;;;;;;;;;;;;;;22.12;37.95;100401.81;2067974;28;839;-55
2022/05/13 02:42:20;;;;;;;;;;;;;;;22.14;38.35;100408.00;2068004;28;855;-55
2022/05/13 02:43:20;;;;;;;;;;;;;;;22.14;38.58;100403.47;2068101;28;887;-55
2022/05/13 02:44:21;;;;;;;;;;;;;;;22.15;38.54;100404.34;2068007;28;768;-55
2022/05/13 02:45:21;;;;;;;;;;;;;;;22.13;37.87;100400.84;2068193;28;733;-56
2022/05/13 02:46:26;;;;;;;;;;;;;;;22.14;37.82;100399.91;2067945;28;887;-55
2022/05/13 02:47:26;;;;;;;;;;;;;;;22.15;37.86;100401.66;2067851;28;1324;-55
2022/05/13 02:48:26;;;;;;;;;;;;;;;22.14;37.83;100402.59;2067933;28;990;-55
2022/05/13 02:49:27;;;;;;;;;;;;;;;22.13;37.83;100398.16;2067995;28;831;-55
2022/05/13 02:50:27;;;;;;;;;;;;;;;22.14;38.60;100397.22;2067924;28;658;-55
2022/05/13 02:51:27;;;;;;;;;;;;;;;22.13;38.10;100401.72;2067949;28;807;-55
2022/05/13 02:52:27;;;;;;;;;;;;;;;22.11;38.10;100397.34;2067950;28;1955;-55
2022/05/13 02:53:27;;;;;;;;;;;;;;;22.13;38.23;100400.84;2067903;28;744;-55
2022/05/13 02:54:27;;;;;;;;;;;;;;;22.11;38.63;100392.81;2067881;28;792;-55
2022/05/13 02:55:27;;;;;;;;;;;;;;;22.12;38.56;100388.31;2067886;28;848;-55
2022/05/13 02:56:28;;;;;;;;;;;;;;;22.12;38.66;100396.41;2067814;28;970;-55
2022/05/13 02:57:28;;;;;;;;;;;;;;;22.13;38.28;100395.47;2067842;28;823;-55
2022/05/13 02:58:28;;;;;;;;;;;;;;;22.13;38.60;100390.06;2067837;28;803;-55
2022/05/13 02:59:29;;;;;;;;;;;;;;;22.13;38.04;100395.47;2067868;28;1171;-55
2022/05/13 03:00:29;;;;;;;;;;;;;;;22.12;37.84;100332.53;2067833;28;973;-55
2022/05/13 03:01:29;;;;;;;;;;;;;;;22.13;38.05;100330.72;2067870;28;1040;-55
2022/05/13 03:02:29;;;;;;;;;;;;;;;22.13;37.94;100334.28;2067851;28;842;-55
2022/05/13 03:03:30;;;;;;;;;;;;;;;22.14;38.27;100340.56;2067803;28;768;-55
2022/05/13 03:04:30;;;;;;;;;;;;;;;22.13;38.90;100346.91;2067885;28;835;-55
2022/05/13 03:05:30;;;;;;;;;;;;;;;22.14;38.13;100335.16;2067777;28;993;-55
2022/05/13 03:06:30;;;;;;;;;;;;;;;22.13;38.37;100336.97;2067128;28;808;-55
2022/05/13 03:07:30;;;;;;;;;;;;;;;22.13;38.46;100385.53;2067218;28;982;-55
2022/05/13 03:08:31;;;;;;;;;;;;;;;22.15;38.00;100447.50;2067744;28;954;-55
2022/05/13 03:09:31;;;;;;;;;;;;;;;22.13;38.08;100425.13;2067730;28;946;-55
2022/05/13 03:10:32;;;;;;;;;;;;;;;22.11;38.34;100419.78;2067692;28;851;-55
2022/05/13 03:11:32;;;;;;;;;;;;;;;22.11;38.72;100405.44;2067759;28;1024;-55
2022/05/13 03:12:33;;;;;;;;;;;;;;;22.10;37.91;100399.16;2067708;28;1890;-55
2022/05/13 03:13:33;;;;;;;;;;;;;;;22.12;38.61;100412.59;2067749;28;647;-55
2022/05/13 03:14:34;;;;;;;;;;;;;;;22.11;38.46;100408.13;2067711;28;938;-55
2022/05/13 03:15:34;;;;;;;;;;;;;;;22.11;37.98;100409.00;2067728;28;785;-55
2022/05/13 03:16:35;;;;;;;;;;;;;;;22.10;38.36;100407.25;2067747;28;784;-55
2022/05/13 03:17:36;;;;;;;;;;;;;;;22.11;38.71;100408.13;2067702;28;978;-55
2022/05/13 03:18:39;;;;;;;;;;;;;;;22.10;38.44;100401.84;2067717;28;966;-55
2022/05/13 03:19:40;;;;;;;;;;;;;;;22.11;38.78;100403.59;2067737;28;839;-55
2022/05/13 03:20:40;;;;;;;;;;;;;;;22.12;38.95;100399.09;2067652;28;819;-55
2022/05/13 03:21:40;;;;;;;;;;;;;;;22.13;37.97;100406.25;2067295;28;785;-55
2022/05/13 03:22:41;;;;;;;;;;;;;;;22.13;38.24;100408.94;2067600;28;910;-55
2022/05/13 03:23:43;;;;;;;;;;;;;;;22.12;38.11;100405.34;2067685;28;982;-55
2022/05/13 03:24:43;;;;;;;;;;;;;;;22.13;38.10;100406.25;2067642;28;796;-55
2022/05/13 03:25:43;;;;;;;;;;;;;;;22.12;37.99;100407.19;2067707;28;838;-56
2022/05/13 03:26:44;;;;;;;;;;;;;;;22.12;38.84;100405.34;2067638;28;748;-55
2022/05/13 03:27:44;;;;;;;;;;;;;;;22.11;38.81;100411.69;2067472;28;1047;-55
2022/05/13 03:28:45;;;;;;;;;;;;;;;22.11;38.62;100405.44;2067688;28;764;-56
2022/05/13 03:29:45;;;;;;;;;;;;;;;22.10;38.15;100399.16;2067658;28;954;-55
2022/05/13 03:30:45;;;;;;;;;;;;;;;22.13;38.90;100401.72;2067604;28;833;-55
2022/05/13 03:31:46;;;;;;;;;;;;;;;22.12;38.05;100391.00;2067646;28;807;-55
2022/05/13 03:32:46;;;;;;;;;;;;;;;22.12;38.32;100385.63;2067456;28;1935;-55
2022/05/13 03:33:47;;;;;;;;;;;;;;;22.13;38.40;100393.63;2067741;28;813;-55
2022/05/13 03:34:47;;;;;;;;;;;;;;;22.14;38.37;100402.59;2067554;28;816;-55
2022/05/13 03:35:47;;;;;;;;;;;;;;;22.12;38.18;100394.56;2067587;28;835;-55
2022/05/13 03:36:49;;;;;;;;;;;;;;;22.13;38.37;100407.09;2067535;28;776;-55
2022/05/13 03:37:49;;;;;;;;;;;;;;;22.15;38.14;100407.06;2067598;28;781;-55
2022/05/13 03:38:49;;;;;;;;;;;;;;;22.13;38.17;100403.56;2067519;28;1045;-55
2022/05/13 03:39:49;;;;;;;;;;;;;;;22.13;39.00;100398.16;2067500;28;970;-55
2022/05/13 03:40:50;;;;;;;;;;;;;;;22.11;38.91;100403.59;2067518;28;1029;-55
2022/05/13 03:41:50;;;;;;;;;;;;;;;22.12;38.33;100393.72;2067524;28;1017;-55
2022/05/13 03:42:50;;;;;;;;;;;;;;;22.12;38.97;100401.81;2067565;28;823;-55
2022/05/13 03:43:50;;;;;;;;;;;;;;;22.12;38.78;100404.50;2067512;28;828;-55
2022/05/13 03:44:51;;;;;;;;;;;;;;;22.11;39.11;100405.44;2067463;28;749;-55
2022/05/13 03:45:51;;;;;;;;;;;;;;;22.06;38.71;100402.97;2067517;28;966;-55
2022/05/13 03:46:51;;;;;;;;;;;;;;;22.09;38.59;100408.19;2067473;28;781;-55
2022/05/13 03:47:51;;;;;;;;;;;;;;;22.10;38.56;100404.56;2067509;28;852;-54
2022/05/13 03:48:51;;;;;;;;;;;;;;;22.09;38.35;100410.88;2067512;28;1037;-55
2022/05/13 03:49:52;;;;;;;;;;;;;;;22.09;39.01;100416.28;2067620;28;772;-55
2022/05/13 03:50:52;;;;;;;;;;;;;;;22.09;38.32;100410.88;2067472;28;848;-55
2022/05/13 03:51:52;;;;;;;;;;;;;;;22.10;39.08;100407.25;2067476;28;820;-55
2022/05/13 03:52:53;;;;;;;;;;;;;;;22.09;39.18;100408.19;2067395;28;1927;-55
2022/05/13 03:53:53;;;;;;;;;;;;;;;22.10;38.93;100403.69;2067415;28;1033;-55
2022/05/13 03:54:53;;;;;;;;;;;;;;;22.09;38.48;100401.94;2067449;28;811;-55
2022/05/13 03:55:53;;;;;;;;;;;;;;;22.11;38.81;100411.69;2067429;28;962;-55
2022/05/13 03:56:53;;;;;;;;;;;;;;;22.11;39.11;100408.13;2067417;28;827;-55
2022/05/13 03:57:54;;;;;;;;;;;;;;;22.11;39.08;100410.84;2067435;28;796;-55
2022/05/13 03:58:54;;;;;;;;;;;;;;;22.10;38.32;100403.69;2067356;28;807;-55
2022/05/13 03:59:54;;;;;;;;;;;;;;;22.10;39.21;100409.94;2067452;28;970;-55
2022/05/13 04:00:54;;;;;;;;;;;;;;;22.09;39.18;100400.09;2067408;28;748;-55
2022/05/13 04:01:55;;;;;;;;;;;;;;;22.94;37.53;100405.97;2067378;28;773;-55
2022/05/13 04:02:55;;;;;;;;;;;;;;;23.64;35.36;100405.13;2067386;28;671;-55
2022/05/13 04:03:55;;;;;;;;;;;;;;;24.07;34.40;100400.16;2067342;28;851;-55
2022/05/13 04:08:56;;;;;;;;;;;;;;;25.33;32.04;100406.50;2067359;28;743;-55
2022/05/13 04:09:56;;;;;;;;;;;;;;;25.62;32.38;100409.31;2067343;28;874;-54
2022/05/13 04:10:56;;;;;;;;;;;;;;;25.74;31.73;100407.69;2067428;28;1028;-54
2022/05/13 04:16:06;;;;;;;;;;;;;;;26.61;30.12;100394.03;2067318;28;673;-55
2022/05/13 04:17:06;;;;;;;;;;;;;;;26.70;29.60;100400.72;2067305;28;812;-55
2022/05/13 04:18:06;;;;;;;;;;;;;;;26.72;29.59;100406.94;2067283;28;974;-55
2022/05/13 04:19:06;;;;;;;;;;;;;;;26.82;29.63;100407.22;2067198;28;962;-55
2022/05/13 04:20:07;;;;;;;;;;;;;;;26.92;29.70;100408.34;2067262;28;875;-55
2022/05/13 04:21:10;;;;;;;;;;;;;;;27.04;29.57;100417.50;2067308;28;962;-55
2022/05/13 04:22:13;;;;;;;;;;;;;;;27.23;28.91;100411.69;2066509;28;1534;-55
2022/05/13 04:23:13;;;;;;;;;;;;;;;27.21;29.16;100413.63;2066621;28;824;-56
2022/05/13 04:24:16;;;;;;;;;;;;;;;27.31;29.36;100412.03;2067214;28;831;-56
2022/05/13 04:25:17;;;;;;;;;;;;;;;27.46;28.43;100412.81;2066525;28;878;-55
2022/05/13 04:26:18;;;;;;;;;;;;;;;27.54;28.25;100416.88;2066606;28;784;-55
2022/05/13 04:27:18;;;;;;;;;;;;;;;27.60;28.21;100413.72;2067178;28;784;-55
2022/05/13 04:28:19;;;;;;;;;;;;;;;27.77;28.12;100415.25;2067030;28;1126;-55
2022/05/13 04:29:19;;;;;;;;;;;;;;;27.81;28.31;100414.06;2067141;28;891;-55
2022/05/13 04:30:19;;;;;;;;;;;;;;;27.87;28.33;100416.34;2067156;28;788;-55
2022/05/13 04:31:24;;;;;;;;;;;;;;;27.99;27.99;100414.59;2067129;28;1065;-55
2022/05/13 04:32:24;;;;;;;;;;;;;;;28.00;27.98;100410.03;2067061;28;1915;-55
2022/05/13 04:33:25;;;;;;;;;;;;;;;28.12;27.87;100403.72;2066296;28;1971;-55
2022/05/13 04:34:25;;;;;;;;;;;;;;;28.10;27.79;100411.09;2067099;28;792;-55
2022/05/13 04:35:25;;;;;;;;;;;;;;;28.22;27.29;100412.97;2067120;28;982;-55
2022/05/13 04:36:26;;;;;;;;;;;;;;;28.31;27.39;100414.16;2067072;28;986;-55
2022/05/13 04:37:26;;;;;;;;;;;;;;;28.26;27.53;100417.19;2067070;28;1192;-55
2022/05/13 04:38:26;;;;;;;;;;;;;;;28.20;27.88;100414.06;2067108;28;780;-55
2022/05/13 04:39:26;;;;;;;;;;;;;;;28.19;27.89;100407.75;2067089;28;1021;-55
2022/05/13 04:40:27;;;;;;;;;;;;;;;28.35;27.85;100409.34;2067312;28;776;-56
2022/05/13 04:42:49;;;;;;;;;;;;;;;28.31;27.27;100408.69;2067134;28;686;-55
2022/05/13 04:43:50;;;;;;;;;;;;;;;28.37;27.12;100410.09;2067194;28;724;-56
2022/05/13 04:44:50;;;;;;;;;;;;;;;28.37;27.36;100410.97;2066992;28;777;-55
2022/05/13 04:45:50;;;;;;;;;;;;;;;28.38;27.19;100412.72;2067029;28;828;-55
2022/05/13 04:46:50;;;;;;;;;;;;;;;28.42;27.02;100413.34;2067017;28;1016;-55
2022/05/13 04:49:13;;;;;;;;;;;;;;;28.64;26.92;100409.03;2067143;28;654;-55
2022/05/13 04:50:13;;;;;;;;;;;;;;;28.81;26.52;100411.41;2067090;28;811;-55
2022/05/13 04:51:13;;;;;;;;;;;;;;;28.77;26.68;100414.47;2067111;28;649;-55
2022/05/13 04:52:13;;;;;;;;;;;;;;;28.74;26.58;100420.09;2067009;28;982;-55
2022/05/13 04:53:15;;;;;;;;;;;;;;;28.62;26.90;100411.00;2066892;28;1898;-55
2022/05/13 04:54:16;;;;;;;;;;;;;;;28.73;26.87;100411.09;2067075;28;784;-55
2022/05/13 04:55:16;;;;;;;;;;;;;;;28.72;26.96;100412.06;2067123;28;815;-55
2022/05/13 04:56:16;;;;;;;;;;;;;;;28.85;26.35;100407.44;2066968;28;760;-55
2022/05/13 04:57:17;;;;;;;;;;;;;;;28.93;26.92;100415.06;2066998;28;878;-55
2022/05/13 04:58:17;;;;;;;;;;;;;;;28.94;25.92;100415.91;2066888;28;836;-55
2022/05/13 04:59:17;;;;;;;;;;;;;;;28.88;26.55;100419.97;2066903;28;1006;-55
2022/05/13 05:00:17;;;;;;;;;;;;;;;28.79;26.66;100415.22;2066916;28;1013;-55
2022/05/13 05:01:18;;;;;;;;;;;;;;;28.91;26.65;100427.94;2066918;28;812;-56
2022/05/13 05:02:18;;;;;;;;;;;;;;;28.88;27.02;100427.28;2066820;28;948;-55
2022/05/13 05:03:19;;;;;;;;;;;;;;;28.90;26.64;100426.19;2066881;28;1025;-55
2022/05/13 05:04:19;;;;;;;;;;;;;;;28.88;26.44;100438.16;2066909;28;812;-55
2022/05/13 05:05:20;;;;;;;;;;;;;;;28.96;26.82;100430.28;2066869;28;756;-55
2022/05/13 05:06:20;;;;;;;;;;;;;;;29.09;26.24;100436.56;2066153;28;1582;-55
2022/05/13 05:07:21;;;;;;;;;;;;;;;29.04;26.27;100425.13;2066284;28;784;-55
2022/05/13 05:08:21;;;;;;;;;;;;;;;29.09;26.44;100422.91;2066966;28;966;-55
2022/05/13 05:09:21;;;;;;;;;;;;;;;29.02;26.67;100423.53;2066324;28;855;-55
2022/05/13 05:10:21;;;;;;;;;;;;;;;29.19;26.54;100419.50;2066202;28;780;-55
2022/05/13 05:11:21;;;;;;;;;;;;;;;29.16;26.08;100419.72;2066827;28;839;-55
2022/05/13 05:12:21;;;;;;;;;;;;;;;28.99;26.80;100419.16;2066940;28;986;-55
2022/05/13 05:13:23;;;;;;;;;;;;;;;29.07;26.39;100415.88;2066805;28;1894;-55
2022/05/13 05:14:23;;;;;;;;;;;;;;;29.03;27.15;100422.53;2066806;28;765;-55
2022/05/13 05:15:24;;;;;;;;;;;;;;;28.88;27.04;100419.09;2066834;28;784;-56
2022/05/13 05:16:25;;;;;;;;;;;;;;;28.98;26.40;100421.03;2066810;28;796;-55
2022/05/13 05:17:25;;;;;;;;;;;;;;;29.04;26.26;100427.84;2066791;28;824;-55
2022/05/13 05:18:26;;;;;;;;;;;;;;;29.12;26.65;100416.38;2066735;28;1017;-55
2022/05/13 05:19:26;;;;;;;;;;;;;;;29.10;26.16;100427.38;2066823;28;823;-55
2022/05/13 05:20:27;;;;;;;;;;;;;;;28.97;26.76;100427.47;2066088;28;1221;-55
2022/05/13 05:21:28;;;;;;;;;;;;;;;29.11;26.29;100422.81;2066156;28;966;-55
2022/05/13 05:22:28;;;;;;;;;;;;;;;29.07;26.31;100426.75;2066792;28;864;-55
2022/05/13 05:23:30;;;;;;;;;;;;;;;29.07;26.57;100427.63;2066743;28;855;-55
2022/05/13 05:24:30;;;;;;;;;;;;;;;29.06;26.44;100425.88;2066783;28;764;-55
2022/05/13 05:25:30;;;;;;;;;;;;;;;29.26;26.03;100431.66;2066745;28;978;-55
2022/05/13 05:26:31;;;;;;;;;;;;;;;29.20;26.48;100429.41;2066709;28;883;-55
2022/05/13 05:27:35;;;;;;;;;;;;;;;29.09;26.79;100431.09;2066534;28;1213;-55
2022/05/13 05:28:38;;;;;;;;;;;;;;;29.21;26.77;100425.69;2066788;28;847;-55
2022/05/13 05:29:38;;;;;;;;;;;;;;;29.12;26.64;100424.56;2066709;28;883;-55
2022/05/13 05:30:39;;;;;;;;;;;;;;;29.06;26.62;100425.88;2066748;28;918;-55
2022/05/13 05:31:39;;;;;;;;;;;;;;;29.18;26.55;100426.78;2066731;28;784;-55
2022/05/13 05:32:40;;;;;;;;;;;;;;;29.23;26.71;100427.31;2066626;28;1959;-55
2022/05/13 05:33:42;;;;;;;;;;;;;;;29.21;26.16;100423.81;2066697;28;854;-55